createdAt,value
2022-07-31T00:01:00.502Z,3.95
2022-07-31T00:05:03.213Z,4.10
2022-07-31T00:09:04.969Z,3.92
2022-07-31T00:13:06.809Z,4.00
2022-07-31T00:17:08.575Z,4.15
2022-07-31T00:21:10.755Z,4.10
2022-07-31T00:25:14.423Z,4.07
2022-07-31T00:29:16.314Z,4.28
2022-07-31T00:33:18.119Z,4.35
2022-07-31T00:37:19.850Z,4.15
2022-07-31T00:41:21.610Z,5.07
2022-07-31T00:45:29.214Z,4.28
2022-07-31T00:49:37.840Z,4.30
2022-07-31T00:53:39.866Z,3.80
2022-07-31T00:57:41.662Z,3.67
2022-07-31T01:01:43.373Z,3.92
2022-07-31T01:05:45.109Z,4.20
2022-07-31T01:09:48.585Z,4.20
2022-07-31T01:14:04.780Z,4.00
2022-07-31T01:18:10.551Z,4.57
2022-07-31T01:22:35.749Z,4.30
2022-07-31T01:26:51.955Z,4.78
2022-07-31T01:31:26.108Z,4.75
2022-07-31T01:35:36.334Z,4.15
2022-07-31T01:39:41.527Z,4.50
2022-07-31T01:43:47.869Z,4.57
2022-07-31T01:47:50.450Z,4.10
2022-07-31T01:52:02.949Z,4.43
2022-07-31T01:56:07.513Z,4.40
2022-07-31T02:00:34.326Z,4.65
2022-07-31T02:04:33.829Z,5.03
2022-07-31T02:08:36.835Z,5.03
2022-07-31T02:12:40.146Z,4.65
2022-07-31T02:16:42.146Z,4.60
2022-07-31T02:20:45.657Z,4.70
2022-07-31T02:24:47.439Z,4.63
2022-07-31T02:28:49.588Z,5.22
2022-07-31T02:32:52.029Z,4.70
2022-07-31T02:36:54.801Z,4.47
2022-07-31T02:41:01.672Z,4.80
2022-07-31T02:45:03.898Z,5.00
2022-07-31T02:49:06.604Z,4.65
2022-07-31T02:53:08.649Z,4.65
2022-07-31T02:57:10.798Z,4.78
2022-07-31T03:01:14.397Z,4.57
2022-07-31T03:05:16.880Z,4.88
2022-07-31T03:09:18.883Z,4.63
2022-07-31T03:13:24.354Z,4.63
2022-07-31T03:17:38.233Z,4.30
2022-07-31T03:21:43.479Z,4.72
2022-07-31T03:25:45.506Z,4.43
2022-07-31T03:29:47.255Z,4.50
2022-07-31T03:33:48.967Z,4.72
2022-07-31T03:37:50.845Z,4.82
2022-07-31T03:41:54.312Z,4.53
2022-07-31T03:45:59.772Z,4.95
2022-07-31T03:50:02.632Z,4.40
2022-07-31T03:54:04.513Z,4.90
2022-07-31T03:58:07.427Z,4.35
2022-07-31T04:02:11.158Z,4.97
2022-07-31T04:06:13.656Z,5.35
2022-07-31T04:10:15.446Z,4.60
2022-07-31T04:14:17.323Z,5.20
2022-07-31T04:18:19.080Z,4.50
2022-07-31T04:22:20.919Z,4.75
2022-07-31T04:26:26.240Z,4.80
2022-07-31T04:30:28.300Z,4.93
2022-07-31T04:34:29.974Z,4.47
2022-07-31T04:38:31.706Z,5.03
2022-07-31T04:42:33.397Z,5.07
2022-07-31T04:46:37.201Z,5.13
2022-07-31T04:50:39.105Z,5.13
2022-07-31T04:54:40.879Z,4.95
2022-07-31T04:58:42.702Z,4.90
2022-07-31T05:02:44.860Z,5.18
2022-07-31T05:06:49.617Z,4.93
2022-07-31T05:11:09.992Z,5.40
2022-07-31T05:15:11.823Z,4.82
2022-07-31T05:19:14.744Z,5.25
2022-07-31T05:23:16.841Z,5.03
2022-07-31T05:27:18.613Z,5.57
2022-07-31T05:31:20.791Z,5.63
2022-07-31T05:35:22.573Z,5.15
2022-07-31T05:39:25.298Z,5.32
2022-07-31T05:43:27.769Z,4.50
2022-07-31T05:47:40.260Z,4.95
2022-07-31T05:51:44.507Z,5.72
2022-07-31T05:55:48.480Z,5.25
2022-07-31T05:59:50.184Z,5.15
2022-07-31T06:03:52.665Z,5.05
2022-07-31T06:07:54.913Z,5.90
2022-07-31T06:11:56.957Z,5.63
2022-07-31T06:15:58.736Z,4.85
2022-07-31T06:20:00.462Z,4.55
2022-07-31T06:24:02.279Z,5.25
2022-07-31T06:28:10.264Z,4.93
2022-07-31T06:32:12.498Z,5.35
2022-07-31T06:36:14.518Z,5.07
2022-07-31T06:40:16.248Z,5.72
2022-07-31T06:44:20.496Z,4.50
2022-07-31T06:48:22.288Z,4.60
2022-07-31T06:52:24.065Z,4.90
2022-07-31T06:56:25.845Z,4.18
2022-07-31T07:00:27.764Z,4.93
2022-07-31T07:04:57.868Z,4.80
2022-07-31T07:08:52.001Z,4.15
2022-07-31T07:12:54.178Z,4.28
2022-07-31T07:16:56.105Z,4.40
2022-07-31T07:20:58.531Z,4.10
2022-07-31T07:25:01.186Z,4.60
2022-07-31T07:29:03.476Z,4.50
2022-07-31T07:33:05.526Z,4.15
2022-07-31T07:37:07.305Z,4.50
2022-07-31T07:41:09.031Z,4.18
2022-07-31T07:45:11.381Z,4.18
2022-07-31T07:49:15.749Z,4.03
2022-07-31T07:53:17.545Z,4.53
2022-07-31T07:57:20.548Z,4.13
2022-07-31T08:01:22.561Z,3.40
2022-07-31T08:05:24.375Z,2.80
2022-07-31T08:09:26.661Z,3.35
2022-07-31T08:13:28.722Z,3.65
2022-07-31T08:17:30.625Z,2.90
2022-07-31T08:21:33.010Z,2.83
2022-07-31T08:25:34.745Z,2.80
2022-07-31T08:29:37.133Z,2.95
2022-07-31T08:33:39.614Z,2.45
2022-07-31T08:37:59.941Z,3.10
2022-07-31T08:42:06.120Z,2.50
2022-07-31T08:46:08.847Z,2.47
2022-07-31T08:50:15.339Z,2.53
2022-07-31T08:54:19.772Z,1.85
2022-07-31T08:58:21.495Z,1.58
2022-07-31T09:02:26.048Z,1.90
2022-07-31T09:06:27.894Z,1.80
2022-07-31T09:10:29.745Z,1.63
2022-07-31T09:14:34.734Z,1.50
2022-07-31T09:18:36.503Z,1.60
2022-07-31T09:22:38.511Z,1.80
2022-07-31T09:26:41.033Z,1.77
2022-07-31T09:30:56.418Z,1.77
2022-07-31T09:35:11.242Z,1.75
2022-07-31T09:39:26.834Z,2.03
2022-07-31T09:43:31.376Z,1.40
2022-07-31T09:47:33.676Z,1.77
2022-07-31T09:51:43.106Z,1.77
2022-07-31T09:55:50.987Z,1.83
2022-07-31T09:59:52.865Z,1.67
2022-07-31T10:03:58.539Z,1.60
2022-07-31T10:08:00.721Z,1.42
2022-07-31T10:12:02.804Z,1.70
2022-07-31T10:16:05.602Z,1.30
2022-07-31T10:20:09.435Z,1.90
2022-07-31T10:24:12.525Z,1.92
2022-07-31T10:28:15.085Z,1.60
2022-07-31T10:32:17.072Z,1.60
2022-07-31T10:36:22.552Z,1.65
2022-07-31T10:40:35.490Z,1.45
2022-07-31T10:44:45.834Z,1.50
2022-07-31T10:48:54.070Z,1.50
2022-07-31T10:53:07.298Z,1.70
2022-07-31T10:57:09.648Z,1.65
2022-07-31T11:01:12.059Z,1.30
2022-07-31T11:05:23.282Z,1.30
2022-07-31T11:09:27.106Z,1.40
2022-07-31T11:13:33.579Z,1.30
2022-07-31T11:18:25.049Z,1.30
2022-07-31T11:22:32.195Z,1.40
2022-07-31T11:26:41.289Z,1.20
2022-07-31T11:30:52.256Z,1.20
2022-07-31T11:34:56.013Z,1.20
2022-07-31T11:38:57.928Z,1.35
2022-07-31T11:48:09.620Z,1.60
2022-07-31T11:51:44.798Z,1.50
2022-07-31T11:55:55.091Z,1.38
2022-07-31T11:59:56.829Z,1.27
2022-07-31T12:04:08.590Z,1.65
2022-07-31T12:08:11.951Z,1.45
2022-07-31T12:12:14.447Z,1.42
2022-07-31T12:16:18.767Z,1.55
2022-07-31T12:20:34.559Z,1.20
2022-07-31T12:24:37.574Z,1.63
2022-07-31T12:28:39.850Z,1.30
2022-07-31T12:32:41.873Z,1.40
2022-07-31T12:36:43.820Z,1.50
2022-07-31T12:40:48.242Z,1.48
2022-07-31T12:44:54.273Z,1.05
2022-07-31T12:48:56.069Z,1.30
2022-07-31T12:53:02.834Z,1.15
2022-07-31T12:57:04.968Z,1.50
2022-07-31T13:01:07.689Z,1.33
2022-07-31T13:05:09.945Z,1.45
2022-07-31T13:09:11.705Z,1.90
2022-07-31T13:13:13.641Z,1.25
2022-07-31T13:17:15.402Z,1.15
2022-07-31T13:21:17.274Z,1.30
2022-07-31T13:25:19.355Z,1.25
2022-07-31T13:29:22.791Z,1.40
2022-07-31T13:33:24.506Z,1.20
2022-07-31T13:37:26.438Z,1.30
2022-07-31T13:41:28.366Z,1.70
2022-07-31T13:45:30.121Z,1.40
2022-07-31T13:49:34.675Z,1.80
2022-07-31T13:53:36.589Z,1.77
2022-07-31T13:57:38.269Z,1.80
2022-07-31T14:02:04.241Z,1.65
2022-07-31T14:06:03.800Z,1.50
2022-07-31T14:10:06.874Z,1.50
2022-07-31T14:14:08.940Z,1.40
2022-07-31T14:18:10.869Z,1.60
2022-07-31T14:22:13.368Z,1.60
2022-07-31T14:26:15.158Z,1.90
2022-07-31T14:30:19.786Z,1.58
2022-07-31T14:34:22.044Z,1.55
2022-07-31T14:38:37.513Z,1.45
2022-07-31T14:42:39.610Z,1.50
2022-07-31T14:46:41.541Z,1.50
2022-07-31T14:50:43.248Z,1.35
2022-07-31T14:54:45.006Z,1.52
2022-07-31T14:58:57.555Z,1.73
2022-07-31T15:03:00.416Z,1.60
2022-07-31T15:07:32.521Z,1.60
2022-07-31T15:11:24.116Z,1.58
2022-07-31T15:15:48.296Z,1.70
2022-07-31T15:19:50.320Z,1.80
2022-07-31T15:23:52.427Z,1.67
2022-07-31T15:27:54.213Z,1.60
2022-07-31T15:31:56.448Z,1.33
2022-07-31T15:35:58.204Z,1.50
2022-07-31T15:40:02.704Z,8.27
2022-07-31T15:44:05.290Z,1.75
2022-07-31T15:48:10.089Z,1.70
2022-07-31T15:52:19.150Z,1.55
2022-07-31T15:56:21.393Z,1.50
2022-07-31T16:00:23.820Z,1.75
2022-07-31T16:04:25.985Z,1.60
2022-07-31T16:08:35.869Z,2.13
2022-07-31T16:12:37.761Z,1.80
2022-07-31T16:16:43.042Z,1.85
2022-07-31T16:20:47.965Z,1.50
2022-07-31T16:24:49.772Z,1.63
2022-07-31T16:28:54.126Z,1.77
2022-07-31T16:32:56.299Z,1.90
2022-07-31T16:36:58.117Z,1.50
2022-07-31T16:40:59.884Z,1.60
2022-07-31T16:45:01.692Z,1.80
2022-07-31T16:49:28.425Z,1.80
2022-07-31T16:54:14.353Z,1.75
2022-07-31T16:57:52.016Z,1.60
2022-07-31T17:01:59.451Z,1.90
2022-07-31T17:06:03.873Z,2.20
2022-07-31T17:10:06.125Z,1.77
2022-07-31T17:14:07.972Z,1.65
2022-07-31T17:18:09.700Z,2.00
2022-07-31T17:22:11.819Z,2.08
2022-07-31T17:26:21.550Z,2.05
2022-07-31T17:30:24.218Z,1.90
2022-07-31T17:34:25.990Z,2.15
2022-07-31T17:38:27.753Z,1.80
2022-07-31T17:42:29.589Z,2.03
2022-07-31T17:46:36.229Z,2.17
2022-07-31T17:50:38.566Z,1.80
2022-07-31T17:54:41.062Z,1.70
2022-07-31T17:58:44.202Z,2.15
2022-07-31T18:02:45.991Z,1.90
2022-07-31T18:06:52.609Z,2.10
2022-07-31T18:10:56.358Z,1.70
2022-07-31T18:14:58.121Z,2.20
2022-07-31T18:19:00.016Z,1.70
2022-07-31T18:23:01.971Z,1.92
2022-07-31T18:27:04.138Z,2.35
2022-07-31T18:31:05.853Z,2.08
2022-07-31T18:35:27.597Z,2.28
2022-07-31T18:39:29.398Z,2.22
2022-07-31T18:43:32.104Z,2.05
2022-07-31T18:47:34.028Z,1.60
2022-07-31T18:51:35.987Z,1.83
2022-07-31T18:55:38.130Z,2.35
2022-07-31T18:59:39.968Z,1.85
2022-07-31T19:03:41.814Z,1.85
2022-07-31T19:07:43.476Z,2.05
2022-07-31T19:11:52.002Z,1.92
2022-07-31T19:15:57.703Z,2.38
2022-07-31T19:20:02.124Z,1.85
2022-07-31T19:24:04.707Z,2.17
2022-07-31T19:28:06.660Z,2.40
2022-07-31T19:32:13.977Z,2.30
2022-07-31T19:36:16.050Z,2.22
2022-07-31T19:40:17.787Z,2.53
2022-07-31T19:44:19.587Z,4.60
2022-07-31T19:48:21.452Z,5.50
2022-07-31T19:52:23.464Z,2.30
2022-07-31T19:56:25.173Z,2.28
2022-07-31T20:00:27.462Z,2.45
2022-07-31T20:04:29.225Z,2.30
2022-07-31T20:08:38.860Z,2.00
2022-07-31T20:12:41.416Z,2.20
2022-07-31T20:16:43.203Z,2.65
2022-07-31T20:20:45.079Z,2.47
2022-07-31T20:24:46.863Z,2.40
2022-07-31T20:28:48.707Z,2.30
2022-07-31T20:32:51.422Z,2.60
2022-07-31T20:36:55.380Z,2.30
2022-07-31T20:40:57.226Z,2.33
2022-07-31T20:44:58.920Z,2.40
2022-07-31T20:49:00.797Z,2.60
2022-07-31T20:53:04.186Z,2.75
2022-07-31T20:57:05.930Z,2.75
2022-07-31T21:01:08.083Z,2.67
2022-07-31T21:05:10.026Z,2.45
2022-07-31T21:09:11.757Z,2.00
2022-07-31T21:13:13.527Z,2.50
2022-07-31T21:17:15.270Z,2.20
2022-07-31T21:21:17.782Z,2.38
2022-07-31T21:25:19.878Z,2.20
2022-07-31T21:29:22.008Z,2.70
2022-07-31T21:33:25.298Z,2.50
2022-07-31T21:37:28.117Z,2.70
2022-07-31T21:41:41.964Z,2.35
2022-07-31T21:45:55.558Z,2.47
2022-07-31T21:50:00.549Z,2.80
2022-07-31T21:54:02.284Z,2.63
2022-07-31T21:58:05.432Z,3.05
2022-07-31T22:02:07.614Z,2.92
2022-07-31T22:06:28.288Z,3.17
2022-07-31T22:10:32.284Z,3.40
2022-07-31T22:14:34.586Z,2.90
2022-07-31T22:18:36.580Z,2.90
2022-07-31T22:22:39.425Z,2.80
2022-07-31T22:27:01.277Z,2.90
2022-07-31T22:31:03.173Z,3.13
2022-07-31T22:35:06.200Z,2.78
2022-07-31T22:39:08.161Z,2.85
2022-07-31T22:44:10.074Z,3.22
2022-07-31T22:47:32.830Z,2.90
2022-07-31T22:51:38.444Z,2.60
2022-07-31T22:55:40.803Z,3.03
2022-07-31T22:59:43.873Z,2.80
2022-07-31T23:03:45.706Z,2.83
2022-07-31T23:07:47.462Z,2.67
2022-07-31T23:11:49.238Z,2.60
2022-07-31T23:15:50.989Z,2.45
2022-07-31T23:19:54.427Z,2.30
2022-07-31T23:23:56.489Z,2.10
2022-07-31T23:27:58.241Z,2.22
2022-07-31T23:31:59.971Z,2.03
2022-07-31T23:36:01.990Z,2.17
2022-07-31T23:40:04.453Z,2.13
2022-07-31T23:44:10.580Z,1.90
2022-07-31T23:48:14.977Z,2.05
2022-07-31T23:52:16.890Z,2.22
2022-07-31T23:56:19.371Z,2.05
